Time;durP1;ratioP1;P1;durP2;ratioP2;P2;SDS_P1;SDS_P2;PMS_P1;PMS_P2;Temp;Humidity;BMP_temperature;BMP_pressure;BME280_temperature;BME280_humidity;BME280_pressure;Samples;Min_cycle;Max_cycle;Signal;HPM_P1;HPM_P2
2021/07/17 00:02:38;;;;;;;20.9;12.8;;;;;;;20.9;100;98441.5;;;;
2021/07/17 00:12:38;;;;;;;15.8;12.8;;;;;;;20.7;100;98451.11;;;;
2021/07/17 00:22:38;;;;;;;20.7;14.7;;;;;;;20.5;100;98450.53;;;;
2021/07/17 00:32:38;;;;;;;23.4;15.8;;;;;;;20.43;100;98428.56;;;;
2021/07/17 00:42:38;;;;;;;20.9;15.9;;;;;;;20.2;100;98422.43;;;;
2021/07/17 00:52:38;;;;;;;18;15.3;;;;;;;20.09;100;98403.95;;;;
2021/07/17 01:02:38;;;;;;;20.1;15.5;;;;;;;19.97;100;98401.45;;;;
2021/07/17 01:12:39;;;;;;;20.2;15.2;;;;;;;19.84;100;98427.48;;;;
2021/07/17 01:22:38;;;;;;;25.6;14.1;;;;;;;19.63;100;98449.08;;;;
2021/07/17 01:32:38;;;;;;;20.2;13;;;;;;;19.47;100;98459.42;;;;
2021/07/17 01:42:38;;;;;;;17;14;;;;;;;19.48;100;98455.5;;;;
2021/07/17 01:52:38;;;;;;;17.3;14.1;;;;;;;19.42;100;98457.78;;;;
2021/07/17 02:02:38;;;;;;;14.1;11.4;;;;;;;19.33;100;98450.98;;;;
2021/07/17 02:12:38;;;;;;;13.7;12.2;;;;;;;19.13;100;98452.2;;;;
2021/07/17 02:22:38;;;;;;;15.8;12.1;;;;;;;19.1;100;98449.06;;;;
2021/07/17 02:32:38;;;;;;;14.6;12.2;;;;;;;18.98;100;98448.48;;;;
2021/07/17 02:42:38;;;;;;;13.3;10.8;;;;;;;18.88;100;98447.13;;;;
2021/07/17 02:52:38;;;;;;;16.3;11.3;;;;;;;18.87;100;98439.33;;;;
2021/07/17 03:02:37;;;;;;;17.9;12.9;;;;;;;18.79;100;98443.08;;;;
2021/07/17 03:12:37;;;;;;;15.3;12.7;;;;;;;18.91;100;98443.7;;;;
2021/07/17 03:22:37;;;;;;;16.1;12.1;;;;;;;19.05;100;98443.14;;;;
2021/07/17 03:32:37;;;;;;;17.3;12.5;;;;;;;19.35;100;98451.39;;;;
2021/07/17 03:42:37;;;;;;;15.7;10.8;;;;;;;19.47;100;98449.25;;;;
2021/07/17 03:52:37;;;;;;;15.8;11.1;;;;;;;19.58;100;98457.59;;;;
2021/07/17 04:02:41;;;;;;;14.3;11.8;;;;;;;19.82;100;98461.84;;;;
2021/07/17 04:12:37;;;;;;;13.9;11.8;;;;;;;19.92;100;98450.25;;;;
2021/07/17 04:22:37;;;;;;;19.6;13.1;;;;;;;20.24;100;98461.55;;;;
2021/07/17 04:32:37;;;;;;;16.4;14.7;;;;;;;20.62;100;98469.41;;;;
2021/07/17 04:42:37;;;;;;;18.7;13.7;;;;;;;20.79;100;98465.3;;;;
2021/07/17 04:52:38;;;;;;;15;12;;;;;;;20.79;100;98457.84;;;;
2021/07/17 05:02:38;;;;;;;17.6;14.1;;;;;;;21.36;100;98467.34;;;;
2021/07/17 05:12:38;;;;;;;17.3;13.2;;;;;;;21.8;100;98466.41;;;;
2021/07/17 05:22:39;;;;;;;14.5;11.3;;;;;;;21.79;100;98454.67;;;;
2021/07/17 05:32:39;;;;;;;18.4;11.6;;;;;;;21.93;100;98467.7;;;;
2021/07/17 05:42:40;;;;;;;14.5;10.3;;;;;;;22.42;100;98456.11;;;;
2021/07/17 05:52:40;;;;;;;17.2;11.9;;;;;;;22.76;100;98468.38;;;;
2021/07/17 06:02:41;;;;;;;12.2;9.6;;;;;;;22.89;100;98453.06;;;;
2021/07/17 06:12:41;;;;;;;16.6;10.2;;;;;;;22.98;100;98458.95;;;;
2021/07/17 06:22:42;;;;;;;13;11;;;;;;;23.29;100;98470.35;;;;
2021/07/17 06:32:42;;;;;;;17.5;10.2;;;;;;;23.68;100;98468.33;;;;
2021/07/17 06:42:43;;;;;;;14.2;10.3;;;;;;;24.02;100;98471.36;;;;
2021/07/17 06:52:44;;;;;;;13.8;9.4;;;;;;;24.44;100;98470.41;;;;
2021/07/17 07:02:44;;;;;;;11.1;7.9;;;;;;;24.46;100;98476.32;;;;
2021/07/17 07:12:45;;;;;;;13;8.9;;;;;;;24.75;100;98460.41;;;;
2021/07/17 07:22:46;;;;;;;10.8;8.1;;;;;;;25.17;100;98453.77;;;;
2021/07/17 07:32:49;;;;;;;12.6;7.9;;;;;;;25.08;100;98456.23;;;;
2021/07/17 07:42:47;;;;;;;9.2;7;;;;;;;25.58;100;98468.42;;;;
2021/07/17 07:52:48;;;;;;;12.5;7.9;;;;;;;26.04;100;98474.2;;;;
2021/07/17 08:02:49;;;;;;;11.7;7.6;;;;;;;26.79;100;98482.31;;;;
2021/07/17 08:12:50;;;;;;;12.9;8.6;;;;;;;26.86;100;98476.7;;;;
2021/07/17 08:32:52;;;;;;;11.3;8.7;;;;;;;27.26;100;98477.63;;;;
2021/07/17 08:42:55;;;;;;;12.5;8.1;;;;;;;27.63;100;98476.59;;;;
2021/07/17 08:52:55;;;;;;;10.2;7;;;;;;;27.61;100;98478.23;;;;
2021/07/17 09:02:56;;;;;;;11.6;6.9;;;;;;;27.53;100;98482.33;;;;
2021/07/17 09:12:57;;;;;;;9.5;8;;;;;;;27.51;100;98488.3;;;;
2021/07/17 09:22:58;;;;;;;10.9;7.2;;;;;;;28.35;100;98476.8;;;;
2021/07/17 09:32:59;;;;;;;11.2;7.6;;;;;;;28.56;100;98486.64;;;;
2021/07/17 09:43:01;;;;;;;10.4;6.4;;;;;;;28.13;100;98482;;;;
2021/07/17 09:53:02;;;;;;;10;7.1;;;;;;;28.41;100;98477.84;;;;
2021/07/17 10:03:03;;;;;;;9.5;6.6;;;;;;;28.73;100;98480.73;;;;
2021/07/17 10:13:05;;;;;;;10.8;7.2;;;;;;;29.36;100;98470.12;;;;
2021/07/17 10:23:06;;;;;;;9.8;6.7;;;;;;;29.18;100;98469.75;;;;
2021/07/17 10:33:08;;;;;;;9;6.6;;;;;;;29.37;100;98457.77;;;;
2021/07/17 10:43:10;;;;;;;10.3;6.3;;;;;;;29.7;100;98457.71;;;;
2021/07/17 10:53:11;;;;;;;10.4;6;;;;;;;28.95;100;98453.25;;;;
2021/07/17 11:03:12;;;;;;;8.8;5.9;;;;;;;29.03;100;98453.86;;;;
2021/07/17 11:13:14;;;;;;;10.8;6.3;;;;;;;29.14;100;98443.28;;;;
2021/07/17 11:23:16;;;;;;;10.8;7.7;;;;;;;29.46;100;98429.39;;;;
2021/07/17 11:33:17;;;;;;;8.7;5.7;;;;;;;30.31;100;98430.55;;;;
2021/07/17 11:43:18;;;;;;;8.6;5.8;;;;;;;29.47;100;98426.16;;;;
2021/07/17 11:53:20;;;;;;;15.6;6.5;;;;;;;29.59;100;98421.89;;;;
2021/07/17 12:03:21;;;;;;;12.3;7.2;;;;;;;29.42;100;98431.48;;;;
2021/07/17 12:13:23;;;;;;;9.6;6.1;;;;;;;29.91;99.42383;98429.36;;;;
2021/07/17 12:23:24;;;;;;;10.6;7.1;;;;;;;29.27;100;98419.17;;;;
2021/07/17 12:33:25;;;;;;;10.6;6.8;;;;;;;29.78;100;98404.27;;;;
2021/07/17 12:43:27;;;;;;;12.1;7.5;;;;;;;29.35;100;98384.46;;;;
2021/07/17 12:53:28;;;;;;;11.7;7.6;;;;;;;30.04;100;98369.02;;;;
2021/07/17 13:03:30;;;;;;;12.6;7.5;;;;;;;29.89;100;98351.98;;;;
2021/07/17 13:13:34;;;;;;;13;7.7;;;;;;;29.83;100;98339.05;;;;
2021/07/17 13:23:51;;;;;;;9.9;7.3;;;;;;;30.23;100;98328.34;;;;
2021/07/17 13:33:34;;;;;;;10.2;6.6;;;;;;;30.68;100;98314.2;;;;
2021/07/17 13:43:36;;;;;;;11.9;8;;;;;;;31.22;99.46191;98302.78;;;;
2021/07/17 13:53:37;;;;;;;11.2;7.1;;;;;;;30.76;100;98299.58;;;;
2021/07/17 14:03:39;;;;;;;14.3;6.8;;;;;;;31.36;97.07031;98285.56;;;;
2021/07/17 14:13:40;;;;;;;8.2;6.4;;;;;;;30.65;100;98268.55;;;;
2021/07/17 14:23:42;;;;;;;11.4;6.8;;;;;;;31.16;99.33301;98263.62;;;;
2021/07/17 14:33:43;;;;;;;11;7.2;;;;;;;31.74;97.99805;98252.69;;;;
2021/07/17 14:43:45;;;;;;;10.5;6.5;;;;;;;32.08;93.23047;98259.35;;;;
2021/07/17 14:53:46;;;;;;;9.4;7;;;;;;;31.35;95.18945;98245.78;;;;
2021/07/17 15:03:48;;;;;;;8.3;5.8;;;;;;;32.11;91.99805;98242.48;;;;
2021/07/17 15:13:50;;;;;;;16.2;13.1;;;;;;;33.64;85.94629;98223.47;;;;
2021/07/17 15:23:51;;;;;;;13.9;10.8;;;;;;;35.17;76.37012;98216.63;;;;
2021/07/17 15:33:53;;;;;;;8.8;5.7;;;;;;;34.67;75.44141;98224.84;;;;
2021/07/17 15:43:56;;;;;;;15.3;7.4;;;;;;;33.71;77.40137;98220.34;;;;
2021/07/17 15:53:57;;;;;;;12.3;6.7;;;;;;;34.32;76.38477;98213.39;;;;
2021/07/17 16:03:59;;;;;;;11;6.1;;;;;;;32.49;81.2832;98219.78;;;;
2021/07/17 16:14:01;;;;;;;13.8;8.8;;;;;;;31.91;85.31836;98217.77;;;;
2021/07/17 16:24:02;;;;;;;9.5;7.2;;;;;;;31.96;84.9707;98215.62;;;;
2021/07/17 16:34:04;;;;;;;14.9;9.6;;;;;;;32.26;84.3877;98217.58;;;;
2021/07/17 16:44:06;;;;;;;13.5;8.6;;;;;;;31.54;88.3623;98235.56;;;;
2021/07/17 16:54:07;;;;;;;15.5;11.3;;;;;;;28.35;93.43359;98222.55;;;;
2021/07/17 17:04:08;;;;;;;20.7;8.5;;;;;;;27.15;100;98239.06;;;;
2021/07/17 17:14:10;;;;;;;11.4;8.1;;;;;;;26.78;100;98248.45;;;;
2021/07/17 17:24:11;;;;;;;13.9;10.7;;;;;;;26.01;100;98273.4;;;;
2021/07/17 17:34:11;;;;;;;10.7;8.1;;;;;;;24.99;100;98253.41;;;;
2021/07/17 17:44:12;;;;;;;15.5;7.7;;;;;;;24.74;100;98238.31;;;;
2021/07/17 17:54:13;;;;;;;6.8;4.7;;;;;;;24.2;100;98279.33;;;;
2021/07/17 18:04:14;;;;;;;12.1;9.2;;;;;;;23.46;100;98274.27;;;;
2021/07/17 18:14:14;;;;;;;9.1;6.8;;;;;;;23.41;100;98291.17;;;;
2021/07/17 18:24:15;;;;;;;13.9;9;;;;;;;23.51;100;98313.13;;;;
2021/07/17 18:34:17;;;;;;;10.8;6.7;;;;;;;23.44;100;98306.87;;;;
2021/07/17 18:44:16;;;;;;;10.7;7.7;;;;;;;23.2;100;98324.21;;;;
2021/07/17 18:54:16;;;;;;;9.2;7.3;;;;;;;23.17;100;98290.05;;;;
2021/07/17 19:04:17;;;;;;;17.6;8.4;;;;;;;23.14;100;98340.34;;;;
2021/07/17 19:14:17;;;;;;;10.7;7.7;;;;;;;22.9;100;98317.23;;;;
2021/07/17 19:24:17;;;;;;;16.4;11.2;;;;;;;22.38;100;98378.42;;;;
2021/07/17 19:34:18;;;;;;;10.9;7.7;;;;;;;22.24;100;98368.2;;;;
2021/07/17 19:44:19;;;;;;;10;8;;;;;;;22.32;100;98360.77;;;;
2021/07/17 19:54:19;;;;;;;11.7;8.6;;;;;;;22.19;100;98365.04;;;;
2021/07/17 20:04:19;;;;;;;12.7;7;;;;;;;21.8;100;98338.25;;;;
2021/07/17 20:14:19;;;;;;;9.6;7.1;;;;;;;21.46;100;98335;;;;
2021/07/17 20:24:19;;;;;;;11.7;6.5;;;;;;;21.34;100;98320.86;;;;
2021/07/17 20:34:20;;;;;;;8.4;6;;;;;;;21.2;100;98321.57;;;;
2021/07/17 20:44:20;;;;;;;9.7;5.7;;;;;;;21.03;100;98327.71;;;;
2021/07/17 20:54:20;;;;;;;8.9;6.7;;;;;;;20.93;100;98323.71;;;;
2021/07/17 21:04:20;;;;;;;15.2;8.3;;;;;;;20.63;100;98320.38;;;;
2021/07/17 21:14:20;;;;;;;10.2;7.1;;;;;;;20.44;100;98321.4;;;;
2021/07/17 21:24:20;;;;;;;11.7;7.4;;;;;;;20.6;100;98315.67;;;;
2021/07/17 21:34:20;;;;;;;9.2;6.5;;;;;;;20.34;100;98332.28;;;;
2021/07/17 21:44:20;;;;;;;10.6;7.3;;;;;;;20.2;100;98334.86;;;;
2021/07/17 21:54:20;;;;;;;9.5;5.8;;;;;;;20.16;100;98340.3;;;;
2021/07/17 22:04:20;;;;;;;10.4;6.2;;;;;;;20.29;100;98338.09;;;;
2021/07/17 22:14:20;;;;;;;10.1;5.3;;;;;;;20.37;100;98337.79;;;;
2021/07/17 22:24:20;;;;;;;9.9;5.1;;;;;;;20.55;100;98332.44;;;;
2021/07/17 22:34:20;;;;;;;8.8;6.3;;;;;;;20.62;100;98340.71;;;;
2021/07/17 22:44:20;;;;;;;10;7.4;;;;;;;20.58;100;98332.47;;;;
2021/07/17 22:54:20;;;;;;;12.6;7.6;;;;;;;20.57;100;98333.66;;;;
2021/07/17 23:04:20;;;;;;;11.5;7.2;;;;;;;20.62;100;98327.02;;;;
2021/07/17 23:14:20;;;;;;;10.2;7.8;;;;;;;20.61;100;98300.82;;;;
2021/07/17 23:24:21;;;;;;;12.3;9.2;;;;;;;20.58;100;98328.97;;;;
2021/07/17 23:34:20;;;;;;;10.3;7.8;;;;;;;20.29;100;98302.52;;;;
2021/07/17 23:44:20;;;;;;;12.7;10.1;;;;;;;20.22;100;98321.57;;;;
2021/07/17 23:54:20;;;;;;;24.4;11.6;;;;;;;20.02;100;98296.38;;;;
